Disney Magic — C6PT7 — position and weather

sailwx.info

Track history (hours):
 
Tides and Currents Weather Stations Pressure Air Temp Water Temp Dewpoint Dewpoint Depression Visibility Wind Speed Wind Dir Waves Ship Positions

Disney Magic

Last reported at 2018-Dec-11 03:00 UTC. Time now 2018-Dec-11 06:28 UTC.
Position N 21°42' W 085°30'.

Type: Passenger vessel. MMSI: 308516000.

Wind from 010 at 20 knots

Barometer 1022.5 mb
Air temperature 24.0 ° C
Visibility: greater than 10.8 NM
Dewpoint 17.7 ° C
Water temperature 28.0 ° C

Date/timePositionNaut miles runAvg speedWind from/ knotsBaromVisibWave heightAir tempDewpointWater temp
2018-Dec-11 03:00N 21°42' W 085°30'14015.6 010 / 201022.510.8 24.017.728.0
2018-Dec-10 18:00N 23°00' W 083°24'25214.6 330 / 191019.310.8 25.018.827.0
2018-Dec-10 00:42N 25°27' W 079°40'314.9
2018-Dec-10 00:30N 25°30' W 079°41'815.6
2018-Dec-10 00:00N 25°35' W 079°47'815.5
2018-Dec-09 23:30N 25°40' W 079°54'815.8
2018-Dec-09 23:00N 25°44' W 080°01'612.4
2018-Dec-09 22:30N 25°46' W 080°08'3 5.3
2018-Dec-09 22:00N 25°47' W 080°10'0 0.0
2018-Dec-09 21:30N 25°47' W 080°10'0 0.0
2018-Dec-09 21:00N 25°47' W 080°10'0 0.0
2018-Dec-09 20:30N 25°47' W 080°10'0 0.0
2018-Dec-09 20:00N 25°47' W 080°10'0 0.0
2018-Dec-09 19:28N 25°47' W 080°10'0 0.0
2018-Dec-09 18:51N 25°47' W 080°10'0 0.0
2018-Dec-09 18:27N 25°47' W 080°10'0 0.0
2018-Dec-09 18:00N 25°47' W 080°10'0 0.0
2018-Dec-09 17:30N 25°47' W 080°10'0 0.0
2018-Dec-09 17:00N 25°47' W 080°10'0 0.0
2018-Dec-09 16:27N 25°47' W 080°10'0 0.0
2018-Dec-09 16:00N 25°47' W 080°10'0 0.0
2018-Dec-09 15:30N 25°47' W 080°10'0 0.0
2018-Dec-09 15:00N 25°47' W 080°10'0 0.0
2018-Dec-09 14:30N 25°47' W 080°10'0 0.0
2018-Dec-09 14:00N 25°47' W 080°10'0 0.0
2018-Dec-09 13:30N 25°47' W 080°10'0 0.0
2018-Dec-09 12:54N 25°47' W 080°10'0 0.0
2018-Dec-09 12:30N 25°47' W 080°10'0 0.0
2018-Dec-09 12:00N 25°47' W 080°10'0 0.0
2018-Dec-09 11:30N 25°47' W 080°10'0 0.0
2018-Dec-09 11:00N 25°47' W 080°10'0 0.0
2018-Dec-09 10:31N 25°47' W 080°10'0 0.0
2018-Dec-09 10:00N 25°47' W 080°10'0 0.0
2018-Dec-09 09:31N 25°47' W 080°10'0 0.0
2018-Dec-09 09:00N 25°47' W 080°10'0 0.0
2018-Dec-09 08:30N 25°47' W 080°10'0 0.0
2018-Dec-09 08:00N 25°47' W 080°10'0 0.0
2018-Dec-09 07:31N 25°47' W 080°10'0 0.0
2018-Dec-09 07:00N 25°47' W 080°10'0 1.0
2018-Dec-09 06:30N 25°47' W 080°11'2 4.8
2018-Dec-09 06:00N 25°46' W 080°08'510.3
2018-Dec-09 05:30N 25°47' W 080°03'612.3
2018-Dec-09 05:00N 25°50' W 079°57'713.7
2018-Dec-09 04:30N 25°54' W 079°51'713.5
2018-Dec-09 04:00N 25°57' W 079°44'816.6
2018-Dec-09 03:30N 26°01' W 079°36'1018.8
2018-Dec-09 03:00N 26°06' W 079°27'1019.2
2018-Dec-09 02:30N 26°11' W 079°18'19 0.4
2018-Dec-07 05:43N 25°53' W 079°23'521.8
2018-Dec-07 05:30N 25°49' W 079°26'1121.1
2018-Dec-07 05:00N 25°40' W 079°32'1121.2
2018-Dec-07 04:30N 25°31' W 079°38'1121.8
2018-Dec-07 04:00N 25°22' W 079°45'54 2.2
2018-Dec-06 04:03N 24°40' W 080°22'114.7
2018-Dec-06 04:00N 24°40' W 080°21'4013.1
2018-Dec-06 00:56N 25°15' W 079°59'614.1
2018-Dec-06 00:30N 25°21' W 079°59'714.1
2018-Dec-06 00:00N 25°28' W 079°58'714.2
2018-Dec-05 23:30N 25°35' W 079°57'713.9
2018-Dec-05 23:00N 25°42' W 079°60'612.5
2018-Dec-05 22:30N 25°46' W 080°05'4 9.0
2018-Dec-05 22:01N 25°46' W 080°09'1 1.9
2018-Dec-05 21:30N 25°47' W 080°10'0 0.0
2018-Dec-05 21:00N 25°47' W 080°10'0 0.0
2018-Dec-05 20:27N 25°47' W 080°10'0 0.0
2018-Dec-05 19:57N 25°47' W 080°10'0 0.0
2018-Dec-05 19:27N 25°47' W 080°10'0 0.0
2018-Dec-05 19:00N 25°47' W 080°10'0 0.0
2018-Dec-05 18:27N 25°47' W 080°10'0 0.0
2018-Dec-05 18:00N 25°47' W 080°10'0 0.0
2018-Dec-05 17:30N 25°47' W 080°10'0 0.0
2018-Dec-05 17:00N 25°47' W 080°10'0 0.0
2018-Dec-05 16:30N 25°47' W 080°10'0 0.0
2018-Dec-05 16:00N 25°47' W 080°10'0 0.0
2018-Dec-05 15:30N 25°47' W 080°10'0 0.0
2018-Dec-05 15:00N 25°47' W 080°10'0 0.0
2018-Dec-05 14:30N 25°47' W 080°10'0 0.0
2018-Dec-05 14:00N 25°47' W 080°10'0 0.0
2018-Dec-05 13:30N 25°47' W 080°10'0 0.0
2018-Dec-05 13:00N 25°47' W 080°10'0 0.0
2018-Dec-05 12:30N 25°47' W 080°10'0 0.0
2018-Dec-05 12:00N 25°47' W 080°10'0 0.0
2018-Dec-05 11:30N 25°47' W 080°10'0 0.0
2018-Dec-05 11:00N 25°47' W 080°10'0 0.9
2018-Dec-05 10:30N 25°47' W 080°11'2 4.2
2018-Dec-05 10:00N 25°46' W 080°09'5 9.9
2018-Dec-05 09:31N 25°47' W 080°03'4 8.5
2018-Dec-05 09:01N 25°49' W 079°59'4 7.6
2018-Dec-05 08:30N 25°51' W 079°56'4 7.4
2018-Dec-05 08:00N 25°53' W 079°52'4 7.1
2018-Dec-05 07:30N 25°55' W 079°49'4 7.1
2018-Dec-05 07:00N 25°56' W 079°45'3 6.8
2018-Dec-05 06:30N 25°58' W 079°42'3 7.0
2018-Dec-05 06:00N 26°00' W 079°39'4 7.2
2018-Dec-05 05:30N 26°02' W 079°35'4 9.0
2018-Dec-05 05:00N 26°04' W 079°31'815.3
2018-Dec-05 04:30N 26°08' W 079°24'815.8
2018-Dec-05 04:00N 26°12' W 079°16'  
2018-Dec-02 19:44N 18°47' W 064°39'520.3
2018-Dec-02 19:31N 18°43' W 064°36'1020.0
2018-Dec-02 19:01N 18°35' W 064°31'918.5
2018-Dec-02 18:31N 18°26' W 064°30'6 0.8
2018-Dec-02 10:15N 18°25' W 064°36'1 5.3
2018-Dec-02 10:00N 18°25' W 064°35'6 8.0
2018-Dec-02 09:15N 18°20' W 064°31'5 7.2
2018-Dec-02 08:37N 18°16' W 064°28'  
Track history (hours):
 
Tides and Currents Weather Stations Pressure Air Temp Water Temp Dewpoint Dewpoint Depression Visibility Wind Speed Wind Dir Waves Ship Positions

Disney Magic

Last reported at 2018-Dec-11 03:00 UTC. Time now 2018-Dec-11 06:28 UTC.
Position N 21°42' W 085°30'.

Type: Passenger vessel. MMSI: 308516000.

Wind from 010 at 20 knots

Barometer 1022.5 mb
Air temperature 24.0 ° C
Visibility: greater than 10.8 NM
Dewpoint 17.7 ° C
Water temperature 28.0 ° C

Date/timePositionNaut miles runAvg speedWind from/ knotsBaromVisibWave heightAir tempDewpointWater temp
2018-Dec-11 03:00N 21°42' W 085°30'14015.6 010 / 201022.510.8 24.017.728.0
2018-Dec-10 18:00N 23°00' W 083°24'25214.6 330 / 191019.310.8 25.018.827.0
2018-Dec-10 00:42N 25°27' W 079°40'314.9
2018-Dec-10 00:30N 25°30' W 079°41'815.6
2018-Dec-10 00:00N 25°35' W 079°47'815.5
2018-Dec-09 23:30N 25°40' W 079°54'815.8
2018-Dec-09 23:00N 25°44' W 080°01'612.4
2018-Dec-09 22:30N 25°46' W 080°08'3 5.3
2018-Dec-09 22:00N 25°47' W 080°10'0 0.0
2018-Dec-09 21:30N 25°47' W 080°10'0 0.0
2018-Dec-09 21:00N 25°47' W 080°10'0 0.0
2018-Dec-09 20:30N 25°47' W 080°10'0 0.0
2018-Dec-09 20:00N 25°47' W 080°10'0 0.0
2018-Dec-09 19:28N 25°47' W 080°10'0 0.0
2018-Dec-09 18:51N 25°47' W 080°10'0 0.0
2018-Dec-09 18:27N 25°47' W 080°10'0 0.0
2018-Dec-09 18:00N 25°47' W 080°10'0 0.0
2018-Dec-09 17:30N 25°47' W 080°10'0 0.0
2018-Dec-09 17:00N 25°47' W 080°10'0 0.0
2018-Dec-09 16:27N 25°47' W 080°10'0 0.0
2018-Dec-09 16:00N 25°47' W 080°10'0 0.0
2018-Dec-09 15:30N 25°47' W 080°10'0 0.0
2018-Dec-09 15:00N 25°47' W 080°10'0 0.0
2018-Dec-09 14:30N 25°47' W 080°10'0 0.0
2018-Dec-09 14:00N 25°47' W 080°10'0 0.0
2018-Dec-09 13:30N 25°47' W 080°10'0 0.0
2018-Dec-09 12:54N 25°47' W 080°10'0 0.0
2018-Dec-09 12:30N 25°47' W 080°10'0 0.0
2018-Dec-09 12:00N 25°47' W 080°10'0 0.0
2018-Dec-09 11:30N 25°47' W 080°10'0 0.0
2018-Dec-09 11:00N 25°47' W 080°10'0 0.0
2018-Dec-09 10:31N 25°47' W 080°10'0 0.0
2018-Dec-09 10:00N 25°47' W 080°10'0 0.0
2018-Dec-09 09:31N 25°47' W 080°10'0 0.0
2018-Dec-09 09:00N 25°47' W 080°10'0 0.0
2018-Dec-09 08:30N 25°47' W 080°10'0 0.0
2018-Dec-09 08:00N 25°47' W 080°10'0 0.0
2018-Dec-09 07:31N 25°47' W 080°10'0 0.0
2018-Dec-09 07:00N 25°47' W 080°10'0 1.0
2018-Dec-09 06:30N 25°47' W 080°11'2 4.8
2018-Dec-09 06:00N 25°46' W 080°08'510.3
2018-Dec-09 05:30N 25°47' W 080°03'612.3
2018-Dec-09 05:00N 25°50' W 079°57'713.7
2018-Dec-09 04:30N 25°54' W 079°51'713.5
2018-Dec-09 04:00N 25°57' W 079°44'816.6
2018-Dec-09 03:30N 26°01' W 079°36'1018.8
2018-Dec-09 03:00N 26°06' W 079°27'1019.2
2018-Dec-09 02:30N 26°11' W 079°18'19 0.4
2018-Dec-07 05:43N 25°53' W 079°23'521.8
2018-Dec-07 05:30N 25°49' W 079°26'1121.1
2018-Dec-07 05:00N 25°40' W 079°32'1121.2
2018-Dec-07 04:30N 25°31' W 079°38'1121.8
2018-Dec-07 04:00N 25°22' W 079°45'54 2.2
2018-Dec-06 04:03N 24°40' W 080°22'114.7
2018-Dec-06 04:00N 24°40' W 080°21'4013.1
2018-Dec-06 00:56N 25°15' W 079°59'614.1
2018-Dec-06 00:30N 25°21' W 079°59'714.1
2018-Dec-06 00:00N 25°28' W 079°58'714.2
2018-Dec-05 23:30N 25°35' W 079°57'713.9
2018-Dec-05 23:00N 25°42' W 079°60'612.5
2018-Dec-05 22:30N 25°46' W 080°05'4 9.0
2018-Dec-05 22:01N 25°46' W 080°09'1 1.9
2018-Dec-05 21:30N 25°47' W 080°10'0 0.0
2018-Dec-05 21:00N 25°47' W 080°10'0 0.0
2018-Dec-05 20:27N 25°47' W 080°10'0 0.0
2018-Dec-05 19:57N 25°47' W 080°10'0 0.0
2018-Dec-05 19:27N 25°47' W 080°10'0 0.0
2018-Dec-05 19:00N 25°47' W 080°10'0 0.0
2018-Dec-05 18:27N 25°47' W 080°10'0 0.0
2018-Dec-05 18:00N 25°47' W 080°10'0 0.0
2018-Dec-05 17:30N 25°47' W 080°10'0 0.0
2018-Dec-05 17:00N 25°47' W 080°10'0 0.0
2018-Dec-05 16:30N 25°47' W 080°10'0 0.0
2018-Dec-05 16:00N 25°47' W 080°10'0 0.0
2018-Dec-05 15:30N 25°47' W 080°10'0 0.0
2018-Dec-05 15:00N 25°47' W 080°10'0 0.0
2018-Dec-05 14:30N 25°47' W 080°10'0 0.0
2018-Dec-05 14:00N 25°47' W 080°10'0 0.0
2018-Dec-05 13:30N 25°47' W 080°10'0 0.0
2018-Dec-05 13:00N 25°47' W 080°10'0 0.0
2018-Dec-05 12:30N 25°47' W 080°10'0 0.0
2018-Dec-05 12:00N 25°47' W 080°10'0 0.0
2018-Dec-05 11:30N 25°47' W 080°10'0 0.0
2018-Dec-05 11:00N 25°47' W 080°10'0 0.9
2018-Dec-05 10:30N 25°47' W 080°11'2 4.2
2018-Dec-05 10:00N 25°46' W 080°09'5 9.9
2018-Dec-05 09:31N 25°47' W 080°03'4 8.5
2018-Dec-05 09:01N 25°49' W 079°59'4 7.6
2018-Dec-05 08:30N 25°51' W 079°56'4 7.4
2018-Dec-05 08:00N 25°53' W 079°52'4 7.1
2018-Dec-05 07:30N 25°55' W 079°49'4 7.1
2018-Dec-05 07:00N 25°56' W 079°45'3 6.8
2018-Dec-05 06:30N 25°58' W 079°42'3 7.0
2018-Dec-05 06:00N 26°00' W 079°39'4 7.2
2018-Dec-05 05:30N 26°02' W 079°35'4 9.0
2018-Dec-05 05:00N 26°04' W 079°31'815.3
2018-Dec-05 04:30N 26°08' W 079°24'815.8
2018-Dec-05 04:00N 26°12' W 079°16'  
2018-Dec-02 19:44N 18°47' W 064°39'520.3
2018-Dec-02 19:31N 18°43' W 064°36'1020.0
2018-Dec-02 19:01N 18°35' W 064°31'918.5
2018-Dec-02 18:31N 18°26' W 064°30'6 0.8
2018-Dec-02 10:15N 18°25' W 064°36'1 5.3
2018-Dec-02 10:00N 18°25' W 064°35'6 8.0
2018-Dec-02 09:15N 18°20' W 064°31'5 7.2
2018-Dec-02 08:37N 18°16' W 064°28'  

Dump ship's entire track history